EGEO/OBN METAR and TAF weather

Enter ICAO airport designator
Station Type Date Time Source
EGEO METAR 2018/12/10 15:50 UTC NOAA

EGEO 101550Z 10007KT 9999 FEW018 SCT024 05/02 Q1025


Station Type Date Time Source
EGEO Decoded METAR 2018/12/10 15:50 UTC NOAA

Station name not available
Dec 10, 2018 - 10:50 AM EST / 2018.12.10 1550 UTC
Wind: from the E (100 degrees) at 8 MPH (7 KT):0
Visibility: greater than 7 mile(s):0
Sky conditions: partly cloudy
Temperature: 41 F (5 C)
Dew Point: 35 F (2 C)
Relative Humidity: 80%
Pressure (altimeter): 30.27 in. Hg (1025 hPa)
ob: EGEO 101550Z 10007KT 9999 FEW018 SCT024 05/02 Q1025
cycle: 16

Station Type Date Time Source
EGEO TAF UTC NOAA

Error!


Example: see airport list